Time;durP1;ratioP1;P1;durP2;ratioP2;P2;SDS_P1;SDS_P2;PMS_P1;PMS_P2;Temp;Humidity;BMP_temperature;BMP_pressure;BME280_temperature;BME280_humidity;BME280_pressure;Samples;Min_cycle;Max_cycle;Signal;HPM_P1;HPM_P2
2022/11/14 00:00:59;;;;;;;23.75;12.23;;;7.10;99.90;;;;;;6128261;19;20336;-66
2022/11/14 00:03:04;;;;;;;23.20;11.75;;;7.50;99.90;;;;;;6127684;19;19918;-67
2022/11/14 00:05:11;;;;;;;25.17;12.93;;;7.10;99.90;;;;;;6128903;19;19910;-67
2022/11/14 00:07:15;;;;;;;23.58;12.57;;;7.20;99.90;;;;;;6126488;19;19910;-66
2022/11/14 00:09:19;;;;;;;28.83;13.63;;;7.30;99.90;;;;;;6126471;19;19915;-67
2022/11/14 00:11:22;;;;;;;29.17;14.25;;;6.80;99.90;;;;;;6127168;19;19929;-67
2022/11/14 00:13:26;;;;;;;28.58;15.35;;;;;;;;;;6124232;19;19926;-67
2022/11/14 00:15:30;;;;;;;29.80;14.52;;;7.00;99.90;;;;;;6125478;19;20399;-67
2022/11/14 00:17:34;;;;;;;31.13;14.73;;;;;;;;;;6126520;19;19919;-67
2022/11/14 00:19:38;;;;;;;28.75;14.70;;;7.10;99.90;;;;;;6124636;19;19919;-67
2022/11/14 00:21:45;;;;;;;32.65;16.33;;;7.20;99.90;;;;;;6120556;19;19942;-67
2022/11/14 00:23:49;;;;;;;30.08;15.32;;;7.00;99.90;;;;;;6124345;19;19922;-66
2022/11/14 00:25:53;;;;;;;28.52;15.02;;;;;;;;;;6128792;19;19918;-66
2022/11/14 00:27:59;;;;;;;27.42;14.60;;;7.10;99.90;;;;;;6126082;19;19926;-66
2022/11/14 00:30:03;;;;;;;27.98;14.50;;;7.10;99.90;;;;;;6127200;19;20296;-65
2022/11/14 00:32:07;;;;;;;30.17;15.05;;;7.10;99.90;;;;;;6127111;19;19914;-66
2022/11/14 00:34:11;;;;;;;33.60;16.75;;;7.00;99.90;;;;;;6125295;19;19943;-66
2022/11/14 00:36:15;;;;;;;34.28;16.80;;;;;;;;;;6127695;19;19918;-67
2022/11/14 00:38:22;;;;;;;30.85;16.52;;;7.10;99.90;;;;;;6126531;19;19919;-66
2022/11/14 00:40:26;;;;;;;29.65;15.38;;;;;;;;;;6127126;19;20341;-66
2022/11/14 00:42:30;;;;;;;28.92;15.07;;;7.60;99.90;;;;;;6129109;19;19926;-66
2022/11/14 00:44:34;;;;;;;32.60;15.90;;;;;;;;;;6126819;19;19919;-66
2022/11/14 00:46:38;;;;;;;34.40;15.70;;;;;;;;;;6125879;19;19919;-66
2022/11/14 00:48:42;;;;;;;34.15;16.13;;;7.00;99.90;;;;;;6124287;19;19923;-66
2022/11/14 00:50:46;;;;;;;28.00;14.65;;;6.90;99.90;;;;;;6125832;19;20249;-67
2022/11/14 00:52:50;;;;;;;30.02;15.43;;;;;;;;;;6125680;19;19954;-67
2022/11/14 00:54:57;;;;;;;34.50;16.92;;;7.00;99.90;;;;;;6123930;19;19922;-67
2022/11/14 00:57:01;;;;;;;31.15;15.60;;;7.10;99.90;;;;;;6127679;19;20349;-67
2022/11/14 00:59:05;;;;;;;36.40;16.42;;;6.80;99.90;;;;;;6124650;19;20351;-66
2022/11/14 01:01:09;;;;;;;31.67;15.65;;;7.00;99.90;;;;;;6125859;19;19923;-67
2022/11/14 01:03:13;;;;;;;32.08;15.75;;;;;;;;;;6127557;19;19947;-66
2022/11/14 01:05:17;;;;;;;30.90;14.80;;;6.80;99.90;;;;;;6125922;19;19919;-67
2022/11/14 01:07:21;;;;;;;33.40;15.52;;;;;;;;;;6125110;19;20241;-67
2022/11/14 01:09:25;;;;;;;33.58;15.98;;;7.00;99.90;;;;;;6125172;19;19935;-66
2022/11/14 01:11:31;;;;;;;29.08;14.40;;;6.90;99.90;;;;;;6124770;19;19915;-66
2022/11/14 01:13:35;;;;;;;31.13;15.20;;;;;;;;;;6125852;19;19922;-67
2022/11/14 01:15:41;;;;;;;33.00;15.80;;;6.90;99.90;;;;;;6124859;19;19941;-67
2022/11/14 01:17:45;;;;;;;29.83;15.38;;;6.90;99.90;;;;;;6124669;19;19919;-68
2022/11/14 01:19:49;;;;;;;34.58;16.42;;;7.10;99.90;;;;;;6124557;19;20375;-67
2022/11/14 01:21:53;;;;;;;30.70;14.95;;;;;;;;;;6124929;19;19914;-67
2022/11/14 01:23:57;;;;;;;31.70;15.48;;;6.80;99.90;;;;;;6125715;19;19923;-67
2022/11/14 01:26:05;;;;;;;34.17;16.30;;;6.90;99.90;;;;;;6124298;19;19923;-66
2022/11/14 01:28:13;;;;;;;33.00;15.13;;;7.00;99.90;;;;;;6124250;19;20336;-67
2022/11/14 01:30:17;;;;;;;29.52;14.63;;;6.90;99.90;;;;;;6125626;19;19922;-67
2022/11/14 01:32:21;;;;;;;28.33;14.45;;;7.00;99.90;;;;;;6130307;19;19915;-67
2022/11/14 01:34:25;;;;;;;33.78;16.15;;;6.80;99.90;;;;;;6130621;19;19918;-66
2022/11/14 01:36:29;;;;;;;32.03;14.63;;;;;;;;;;6133460;19;19915;-67
2022/11/14 01:38:33;;;;;;;31.65;15.27;;;;;;;;;;6130160;19;20367;-67
2022/11/14 01:40:44;;;;;;;33.03;15.68;;;6.80;99.90;;;;;;6128555;19;19922;-67
2022/11/14 01:43:23;;;;;;;35.15;17.02;;;6.80;99.90;;;;;;6132180;19;20281;-66
2022/11/14 01:45:53;;;;;;;36.40;15.30;;;6.90;99.90;;;;;;6130411;19;19941;-66
2022/11/14 01:47:57;;;;;;;29.98;15.20;;;6.60;99.90;;;;;;6128515;19;19914;-67
2022/11/14 01:50:03;;;;;;;32.33;14.93;;;7.10;99.90;;;;;;6130999;19;19918;-66
2022/11/14 01:52:10;;;;;;;31.25;15.75;;;6.70;99.90;;;;;;6131290;19;19930;-67
2022/11/14 01:54:18;;;;;;;33.50;16.00;;;6.80;99.90;;;;;;6130708;19;19950;-66
2022/11/14 01:56:26;;;;;;;31.40;15.38;;;6.80;99.90;;;;;;6129765;19;19927;-67
2022/11/14 01:58:35;;;;;;;32.53;16.02;;;6.70;99.90;;;;;;6128140;19;19914;-67
2022/11/14 02:00:39;;;;;;;30.83;15.43;;;6.70;99.90;;;;;;6129638;19;20366;-67
2022/11/14 02:02:44;;;;;;;33.35;14.90;;;6.50;99.90;;;;;;6130707;19;19919;-67
2022/11/14 02:04:52;;;;;;;31.88;14.68;;;6.70;99.90;;;;;;6130106;19;19919;-67
2022/11/14 02:07:03;;;;;;;29.13;15.23;;;6.60;99.90;;;;;;6129804;19;19922;-66
2022/11/14 02:09:08;;;;;;;28.92;14.20;;;6.70;99.90;;;;;;6129883;19;20293;-67
2022/11/14 02:11:13;;;;;;;32.30;15.43;;;6.90;99.90;;;;;;6129544;19;19925;-67
2022/11/14 02:13:17;;;;;;;33.00;15.23;;;6.50;99.90;;;;;;6130009;19;19955;-67
2022/11/14 02:15:25;;;;;;;30.45;14.57;;;6.70;99.90;;;;;;6130009;19;20412;-67
2022/11/14 02:17:29;;;;;;;31.73;15.00;;;6.80;99.90;;;;;;6129411;19;19942;-67
2022/11/14 02:19:43;;;;;;;34.15;16.05;;;6.60;99.90;;;;;;6128930;19;19915;-67
2022/11/14 02:21:50;;;;;;;;;;;7.60;99.90;;;;;;6131386;19;20269;-66
2022/11/14 02:23:53;;;;;;;29.35;14.55;;;6.70;99.90;;;;;;6123739;19;20014;-67
2022/11/14 02:25:55;;;;;;;28.70;14.57;;;6.50;99.90;;;;;;6129032;19;19919;-66
2022/11/14 02:28:01;;;;;;;32.00;14.43;;;6.70;99.90;;;;;;6129047;19;19923;-67
2022/11/14 02:30:07;;;;;;;34.53;15.68;;;6.70;99.90;;;;;;6129170;19;19915;-67
2022/11/14 02:32:11;;;;;;;30.85;15.65;;;6.70;99.90;;;;;;6129043;19;19921;-66
2022/11/14 02:34:18;;;;;;;28.73;14.40;;;6.80;99.90;;;;;;6127983;19;19974;-66
2022/11/14 02:36:22;;;;;;;32.22;14.77;;;6.90;99.90;;;;;;6129115;19;19914;-67
2022/11/14 02:38:28;;;;;;;34.40;15.48;;;6.80;99.90;;;;;;6128195;19;20281;-67
2022/11/14 02:40:32;;;;;;;26.30;13.27;;;6.80;99.90;;;;;;6128150;19;19919;-67
2022/11/14 02:42:36;;;;;;;32.92;15.52;;;6.80;99.90;;;;;;6125502;19;19935;-67
2022/11/14 02:44:40;;;;;;;30.60;15.73;;;6.90;99.90;;;;;;6130217;19;19942;-67
2022/11/14 02:46:44;;;;;;;30.05;14.90;;;;;;;;;;6128681;19;20360;-67
2022/11/14 02:48:48;;;;;;;29.30;14.77;;;6.80;99.90;;;;;;6128673;19;19922;-67
2022/11/14 02:50:52;;;;;;;31.77;16.15;;;6.70;99.90;;;;;;6129264;19;19922;-66
2022/11/14 02:52:56;;;;;;;30.08;14.85;;;6.80;99.90;;;;;;6128714;19;20252;-67
2022/11/14 02:55:02;;;;;;;31.65;15.00;;;7.00;99.90;;;;;;6128278;19;19919;-66
2022/11/14 02:57:07;;;;;;;32.40;16.17;;;7.00;99.90;;;;;;6130906;19;19925;-67
2022/11/14 02:59:11;;;;;;;29.05;15.43;;;;;;;;;;6128954;19;19922;-67
2022/11/14 03:01:15;;;;;;;29.80;14.93;;;7.00;99.90;;;;;;6131306;19;20235;-67
2022/11/14 03:03:19;;;;;;;30.60;15.65;;;;;;;;;;6129053;19;19938;-66
2022/11/14 03:05:23;;;;;;;28.85;14.00;;;7.10;99.90;;;;;;6124054;19;20367;-67
2022/11/14 03:07:27;;;;;;;31.25;15.20;;;6.80;99.90;;;;;;6128347;19;19914;-67
2022/11/14 03:09:31;;;;;;;31.73;14.77;;;;;;;;;;6128115;19;19910;-68
2022/11/14 03:11:37;;;;;;;33.55;16.35;;;6.90;99.90;;;;;;6128375;19;19915;-67
2022/11/14 03:13:41;;;;;;;31.60;16.77;;;6.70;99.90;;;;;;6127373;19;19927;-67
2022/11/14 03:15:45;;;;;;;28.60;15.30;;;6.70;99.90;;;;;;6128014;19;20430;-67
2022/11/14 03:17:49;;;;;;;29.55;15.93;;;6.90;99.90;;;;;;6130083;19;19918;-67
2022/11/14 03:19:53;;;;;;;30.83;15.07;;;6.80;99.90;;;;;;6126554;19;19981;-67
2022/11/14 03:21:57;;;;;;;32.90;16.88;;;7.00;99.90;;;;;;6128158;19;19914;-67
2022/11/14 03:24:01;;;;;;;30.50;15.88;;;;;;;;;;6128221;19;19914;-67
2022/11/14 03:26:07;;;;;;;28.15;15.35;;;6.80;99.90;;;;;;6125774;19;19942;-67
2022/11/14 03:28:14;;;;;;;30.17;15.82;;;6.80;99.90;;;;;;6127922;19;19946;-67
2022/11/14 03:30:18;;;;;;;33.15;15.43;;;7.00;99.90;;;;;;6127966;19;19921;-66
2022/11/14 03:32:22;;;;;;;30.08;15.73;;;6.90;99.90;;;;;;6128239;19;19946;-67
2022/11/14 03:34:26;;;;;;;30.85;16.90;;;6.90;99.90;;;;;;6128694;19;19942;-67
2022/11/14 03:36:30;;;;;;;30.70;16.38;;;7.10;99.90;;;;;;6127970;19;19918;-66
2022/11/14 03:38:34;;;;;;;32.25;16.60;;;7.10;99.90;;;;;;6127717;19;20273;-67
2022/11/14 03:40:42;;;;;;;31.90;15.25;;;6.90;99.90;;;;;;6126945;19;20320;-67
2022/11/14 03:42:45;;;;;;;30.05;16.30;;;7.00;99.90;;;;;;6127673;19;19911;-66
2022/11/14 03:44:52;;;;;;;33.50;16.95;;;7.00;99.90;;;;;;6127396;19;20313;-67
2022/11/14 03:46:56;;;;;;;35.13;16.38;;;6.70;99.90;;;;;;6127297;19;20273;-67
2022/11/14 03:48:59;;;;;;;34.60;16.60;;;6.70;99.90;;;;;;6127996;19;19922;-67
2022/11/14 03:51:03;;;;;;;38.80;18.80;;;6.80;99.90;;;;;;6127402;19;19934;-68
2022/11/14 03:53:07;;;;;;;39.20;19.38;;;6.70;99.90;;;;;;6128668;19;20215;-68
2022/11/14 03:55:11;;;;;;;33.42;17.92;;;6.50;99.90;;;;;;6127685;19;20488;-67
2022/11/14 03:57:16;;;;;;;33.10;17.90;;;;;;;;;;6129638;19;19923;-66
2022/11/14 03:59:20;;;;;;;33.58;18.00;;;6.50;99.90;;;;;;6127069;19;19946;-67
2022/11/14 04:01:27;;;;;;;34.70;17.02;;;6.50;99.90;;;;;;6128343;19;19915;-67
2022/11/14 04:03:30;;;;;;;37.13;18.55;;;6.70;99.90;;;;;;6125753;19;20047;-67
2022/11/14 04:05:35;;;;;;;35.15;18.70;;;;;;;;;;6126314;19;19926;-67
2022/11/14 04:07:39;;;;;;;35.58;17.23;;;6.60;99.90;;;;;;6129417;19;19914;-67
2022/11/14 04:09:43;;;;;;;34.67;17.55;;;6.40;99.90;;;;;;6127532;19;19919;-67
2022/11/14 04:11:47;;;;;;;35.55;16.58;;;6.50;99.90;;;;;;6127306;19;19926;-67
2022/11/14 04:13:51;;;;;;;35.80;17.60;;;;;;;;;;6126110;19;20007;-67
2022/11/14 04:15:58;;;;;;;33.88;16.35;;;6.40;99.90;;;;;;6126462;19;19921;-67
2022/11/14 04:18:05;;;;;;;34.67;17.63;;;6.40;99.90;;;;;;6127684;19;20344;-67
2022/11/14 04:20:09;;;;;;;34.75;17.73;;;6.20;99.90;;;;;;6126482;19;20304;-67
2022/11/14 04:22:14;;;;;;;35.65;16.77;;;6.60;99.90;;;;;;6128871;19;20352;-67
2022/11/14 04:24:18;;;;;;;32.10;15.25;;;6.60;99.90;;;;;;6125879;19;19958;-67
2022/11/14 04:26:22;;;;;;;34.45;17.13;;;6.50;99.90;;;;;;6126228;19;19926;-67
2022/11/14 04:28:26;;;;;;;30.00;15.13;;;;;;;;;;6121896;19;20352;-67
2022/11/14 04:30:29;;;;;;;33.42;15.77;;;6.40;99.90;;;;;;6127386;19;19922;-67
2022/11/14 04:32:33;;;;;;;34.45;16.17;;;6.40;99.90;;;;;;6127367;19;19918;-66
2022/11/14 04:34:40;;;;;;;35.22;16.65;;;6.80;99.90;;;;;;6127910;19;19915;-67
2022/11/14 04:36:44;;;;;;;33.13;16.77;;;6.50;99.90;;;;;;6126980;19;19928;-67
2022/11/14 04:38:48;;;;;;;33.92;16.48;;;;;;;;;;6125191;19;19954;-67
2022/11/14 04:40:52;;;;;;;33.85;16.13;;;6.50;99.90;;;;;;6128214;19;19915;-67
2022/11/14 04:42:56;;;;;;;38.78;18.10;;;6.30;99.90;;;;;;6126522;19;20344;-67
2022/11/14 04:45:00;;;;;;;34.70;16.95;;;;;;;;;;6128462;19;19911;-68
2022/11/14 04:47:04;;;;;;;33.13;15.32;;;6.30;99.90;;;;;;6125827;19;19939;-67
2022/11/14 04:49:08;;;;;;;34.65;16.95;;;6.30;99.90;;;;;;6125848;19;20260;-67
2022/11/14 04:51:15;;;;;;;31.92;15.52;;;6.40;99.90;;;;;;6128811;19;19911;-67
2022/11/14 04:53:19;;;;;;;31.88;16.20;;;6.30;99.90;;;;;;6125860;19;20354;-67
2022/11/14 04:55:22;;;;;;;33.03;16.13;;;6.30;99.90;;;;;;6125209;19;19975;-68
2022/11/14 04:57:27;;;;;;;35.95;16.77;;;6.60;99.90;;;;;;6127889;19;20388;-67
2022/11/14 04:59:32;;;;;;;34.85;16.88;;;;;;;;;;6125531;19;19910;-67
2022/11/14 05:01:35;;;;;;;34.22;16.02;;;6.30;99.90;;;;;;6125406;19;19919;-68
2022/11/14 05:03:39;;;;;;;35.22;16.20;;;;;;;;;;6126479;19;20344;-67
2022/11/14 05:05:44;;;;;;;31.52;15.93;;;;;;;;;;6127566;19;19918;-67
2022/11/14 05:07:50;;;;;;;31.52;16.23;;;6.50;99.90;;;;;;6131088;19;19922;-67
2022/11/14 05:09:54;;;;;;;30.83;16.17;;;6.40;99.90;;;;;;6131149;19;19914;-67
2022/11/14 05:11:58;;;;;;;32.15;16.20;;;6.40;99.90;;;;;;6130863;19;19925;-69
2022/11/14 05:14:02;;;;;;;34.78;15.68;;;;;;;;;;6131365;19;19922;-67
2022/11/14 05:16:06;;;;;;;30.35;16.05;;;6.60;99.90;;;;;;6131254;19;20249;-67
2022/11/14 05:18:10;;;;;;;33.53;16.20;;;6.40;99.90;;;;;;6130937;19;19942;-67
2022/11/14 05:20:14;;;;;;;33.10;16.38;;;6.50;99.90;;;;;;6129130;19;19942;-67
2022/11/14 05:22:19;;;;;;;32.10;15.43;;;6.40;99.90;;;;;;6130779;19;19921;-67
2022/11/14 05:24:27;;;;;;;34.03;15.63;;;6.60;99.90;;;;;;6131015;19;19914;-67
2022/11/14 05:26:31;;;;;;;34.83;16.02;;;6.20;99.90;;;;;;6130098;19;19919;-67
2022/11/14 05:28:35;;;;;;;34.55;17.10;;;6.20;99.90;;;;;;6130772;19;19942;-68
2022/11/14 05:30:39;;;;;;;35.40;16.17;;;6.20;99.90;;;;;;6130019;19;19922;-67
2022/11/14 05:32:43;;;;;;;34.63;15.90;;;;;;;;;;6130844;19;19914;-67
2022/11/14 05:34:47;;;;;;;29.73;14.65;;;6.20;99.90;;;;;;6133535;19;19929;-67
2022/11/14 05:36:51;;;;;;;37.28;15.50;;;6.40;99.90;;;;;;6133469;19;19925;-69
2022/11/14 05:38:56;;;;;;;35.92;17.25;;;6.50;99.90;;;;;;6131467;19;19925;-68
2022/11/14 05:41:07;;;;;;;37.72;15.88;;;6.40;99.90;;;;;;6127129;19;19923;-67
2022/11/14 05:43:11;;;;;;;32.58;15.60;;;6.10;99.90;;;;;;6127749;19;19911;-67
2022/11/14 05:45:15;;;;;;;35.25;16.35;;;6.10;99.90;;;;;;6130580;19;20260;-67
2022/11/14 05:47:19;;;;;;;30.83;15.18;;;6.40;99.90;;;;;;6130692;19;19946;-68
2022/11/14 05:49:23;;;;;;;31.80;15.45;;;6.40;99.90;;;;;;6131018;19;19922;-67
2022/11/14 05:51:28;;;;;;;36.97;15.43;;;6.20;99.90;;;;;;6131672;19;20006;-67
2022/11/14 05:53:33;;;;;;;38.22;16.65;;;6.30;99.90;;;;;;6133430;19;19994;-67
2022/11/14 05:55:37;;;;;;;38.78;16.90;;;6.20;99.90;;;;;;6129891;19;20303;-68
2022/11/14 05:57:44;;;;;;;36.00;16.20;;;6.30;99.90;;;;;;6129011;19;19930;-67
2022/11/14 05:59:48;;;;;;;36.30;16.17;;;6.40;99.90;;;;;;6126285;19;19928;-68
2022/11/14 06:01:52;;;;;;;33.28;15.75;;;6.10;99.90;;;;;;6129759;19;19930;-66
2022/11/14 06:03:56;;;;;;;34.60;15.13;;;6.40;99.90;;;;;;6129458;19;19914;-66
2022/11/14 06:06:02;;;;;;;41.40;17.50;;;6.10;99.90;;;;;;6129561;19;20256;-66
2022/11/14 06:08:06;;;;;;;38.00;16.10;;;6.10;99.90;;;;;;6130565;19;19918;-66
2022/11/14 06:10:10;;;;;;;36.03;16.20;;;6.20;99.90;;;;;;6129384;19;19966;-66
2022/11/14 06:12:15;;;;;;;39.10;16.52;;;;;;;;;;6129476;19;20352;-66
2022/11/14 06:14:21;;;;;;;36.45;16.40;;;6.00;99.90;;;;;;6129770;19;19921;-67
2022/11/14 06:16:25;;;;;;;39.20;17.77;;;6.10;99.90;;;;;;6128636;19;19914;-66
2022/11/14 06:18:30;;;;;;;36.70;15.63;;;6.20;99.90;;;;;;6129864;19;19976;-67
2022/11/14 06:20:33;;;;;;;39.60;16.35;;;6.60;99.90;;;;;;6127897;19;20328;-66
2022/11/14 06:22:37;;;;;;;42.03;17.67;;;6.10;99.90;;;;;;6128413;19;19978;-66
2022/11/14 06:24:41;;;;;;;38.60;16.90;;;6.00;99.90;;;;;;6130865;19;19919;-66
2022/11/14 06:26:45;;;;;;;40.08;17.60;;;;;;;;;;6129723;19;19914;-66
2022/11/14 06:28:49;;;;;;;38.42;17.48;;;6.50;99.90;;;;;;6128898;19;19925;-66
2022/11/14 06:30:59;;;;;;;38.92;16.83;;;6.20;99.90;;;;;;6130591;19;19911;-67
2022/11/14 06:33:02;;;;;;;38.83;17.42;;;5.90;99.90;;;;;;6128832;19;19919;-67
2022/11/14 06:35:07;;;;;;;36.33;17.63;;;6.20;99.90;;;;;;6128281;19;19919;-67
2022/11/14 06:37:11;;;;;;;39.92;17.30;;;6.00;99.90;;;;;;6130524;19;19919;-67
2022/11/14 06:39:15;;;;;;;38.95;17.10;;;6.40;99.90;;;;;;6128875;19;19918;-67
2022/11/14 06:41:20;;;;;;;37.67;16.05;;;6.30;99.90;;;;;;6127414;19;20019;-67
2022/11/14 06:43:24;;;;;;;46.85;18.42;;;;;;;;;;6128376;19;20015;-68
2022/11/14 06:45:28;;;;;;;33.72;16.02;;;6.00;99.90;;;;;;6130422;19;19926;-67
2022/11/14 06:47:34;;;;;;;41.17;18.02;;;5.90;99.90;;;;;;6128849;19;20328;-67
2022/11/14 06:49:38;;;;;;;41.13;16.92;;;5.80;99.90;;;;;;6130775;19;19933;-67
2022/11/14 06:51:42;;;;;;;40.30;17.67;;;;;;;;;;6128272;19;20343;-67
2022/11/14 06:53:47;;;;;;;39.45;18.00;;;;;;;;;;6128537;19;19926;-67
2022/11/14 06:55:58;;;;;;;39.15;17.13;;;6.10;99.90;;;;;;6128955;19;19930;-67
2022/11/14 06:58:03;;;;;;;41.35;17.13;;;5.90;99.90;;;;;;6128840;19;19918;-68
2022/11/14 07:00:08;;;;;;;36.80;16.25;;;6.10;99.90;;;;;;6128031;19;19911;-67
2022/11/14 07:02:13;;;;;;;39.10;15.40;;;6.00;99.90;;;;;;6128596;19;19918;-67
2022/11/14 07:04:20;;;;;;;41.75;18.17;;;5.70;99.90;;;;;;6127777;19;19915;-67
2022/11/14 07:06:30;;;;;;;38.58;16.42;;;6.10;99.90;;;;;;6128851;19;19942;-67
2022/11/14 07:08:35;;;;;;;38.42;17.83;;;6.00;99.90;;;;;;6129989;19;19919;-67
2022/11/14 07:10:39;;;;;;;41.17;17.95;;;6.10;99.90;;;;;;6129133;19;20407;-67
2022/11/14 07:12:43;;;;;;;39.95;16.92;;;;;;;;;;6127138;19;20284;-67
2022/11/14 07:14:49;;;;;;;37.35;17.45;;;5.80;99.90;;;;;;6128378;19;19922;-67
2022/11/14 07:16:53;;;;;;;39.00;17.88;;;;;;;;;;6125212;19;21685;-68
2022/11/14 07:19:00;;;;;;;38.47;16.60;;;6.10;99.90;;;;;;6129098;19;19939;-68
2022/11/14 07:21:12;;;;;;;36.83;16.67;;;6.00;99.90;;;;;;6128904;19;19926;-68
2022/11/14 07:23:16;;;;;;;39.42;17.25;;;6.00;99.90;;;;;;6127612;19;19946;-75
2022/11/14 07:25:21;;;;;;;39.00;17.60;;;;;;;;;;6126758;19;19922;-67
2022/11/14 07:27:27;;;;;;;40.20;18.00;;;6.00;99.90;;;;;;6126288;19;19986;-68
2022/11/14 07:29:32;;;;;;;38.17;17.08;;;;;;;;;;6128046;19;19922;-68
2022/11/14 07:31:36;;;;;;;39.50;17.17;;;;;;;;;;6127570;19;19970;-67
2022/11/14 07:33:40;;;;;;;35.65;17.27;;;6.10;99.90;;;;;;6131380;19;19922;-67
2022/11/14 07:35:44;;;;;;;40.83;17.20;;;5.90;99.90;;;;;;6125835;19;19923;-67
2022/11/14 07:37:51;;;;;;;36.15;18.08;;;6.10;99.90;;;;;;6127871;19;19914;-67
2022/11/14 07:39:55;;;;;;;35.45;15.10;;;;;;;;;;6127074;19;20262;-68
2022/11/14 07:41:58;;;;;;;34.75;15.20;;;6.10;99.90;;;;;;6128283;19;20284;-68
2022/11/14 07:44:03;;;;;;;36.35;17.42;;;;;;;;;;6127892;19;19974;-68
2022/11/14 07:46:09;;;;;;;37.58;17.45;;;6.20;99.90;;;;;;6128007;19;20000;-68
2022/11/14 07:48:13;;;;;;;40.17;16.63;;;;;;;;;;6126921;19;19926;-67
2022/11/14 07:50:17;;;;;;;35.03;16.98;;;6.20;99.90;;;;;;6127065;19;19915;-67
2022/11/14 07:52:21;;;;;;;37.10;17.20;;;6.00;99.90;;;;;;6129030;19;19998;-67
2022/11/14 07:54:27;;;;;;;39.42;18.55;;;6.00;99.90;;;;;;6127517;19;19910;-67
2022/11/14 07:56:31;;;;;;;39.40;17.63;;;6.20;99.90;;;;;;6127132;19;19927;-68
2022/11/14 07:58:37;;;;;;;39.75;19.10;;;6.00;99.90;;;;;;6125136;19;19915;-68
2022/11/14 08:00:41;;;;;;;35.53;17.00;;;;;;;;;;6126433;19;19910;-68
2022/11/14 08:02:45;;;;;;;35.92;17.17;;;;;;;;;;6126973;19;19919;-67
2022/11/14 08:04:49;;;;;;;40.75;18.50;;;;;;;;;;6127016;19;19934;-68
2022/11/14 08:06:53;;;;;;;38.03;17.75;;;5.60;99.90;;;;;;6128109;19;19925;-68
2022/11/14 08:08:57;;;;;;;39.72;18.15;;;6.30;99.90;;;;;;6129205;19;19961;-68
2022/11/14 08:11:03;;;;;;;35.88;17.90;;;6.30;99.90;;;;;;6126984;19;19934;-67
2022/11/14 08:13:08;;;;;;;38.17;17.17;;;6.20;99.90;;;;;;6126910;19;20340;-67
2022/11/14 08:15:14;;;;;;;37.65;18.45;;;6.40;99.90;;;;;;6126889;19;19919;-68
2022/11/14 08:17:18;;;;;;;36.33;17.73;;;;;;;;;;6127140;19;20251;-67
2022/11/14 08:19:22;;;;;;;35.78;16.90;;;6.20;99.90;;;;;;6127584;19;19921;-67
2022/11/14 08:21:26;;;;;;;33.00;16.38;;;5.90;99.90;;;;;;6126524;19;20376;-66
2022/11/14 08:23:29;;;;;;;41.00;18.50;;;6.20;99.90;;;;;;6128532;19;19911;-66
2022/11/14 08:25:33;;;;;;;36.13;17.15;;;6.10;99.90;;;;;;6124276;19;19946;-67
2022/11/14 08:27:40;;;;;;;38.28;17.85;;;6.10;99.90;;;;;;6119451;19;19934;-67
2022/11/14 08:29:44;;;;;;;33.42;16.77;;;6.20;99.90;;;;;;6113617;19;19922;-67
2022/11/14 08:31:48;;;;;;;40.63;16.83;;;6.60;99.90;;;;;;6111556;19;22240;-67
2022/11/14 08:33:53;;;;;;;37.28;17.17;;;6.20;99.90;;;;;;6125365;19;20550;-68
2022/11/14 08:35:57;;;;;;;31.70;15.60;;;6.60;99.90;;;;;;6124765;19;19918;-68
2022/11/14 08:38:03;;;;;;;42.58;18.42;;;6.50;99.90;;;;;;6118846;19;19919;-67
2022/11/14 08:40:07;;;;;;;37.25;17.77;;;6.50;99.90;;;;;;6123743;19;20453;-67
2022/11/14 08:42:12;;;;;;;38.92;17.95;;;;;;;;;;6126118;19;19930;-67
2022/11/14 08:44:18;;;;;;;36.88;16.48;;;6.60;99.90;;;;;;6126336;19;19954;-67
2022/11/14 08:46:22;;;;;;;32.83;16.88;;;6.70;99.90;;;;;;6127140;19;19942;-68
2022/11/14 08:48:26;;;;;;;33.80;16.67;;;;;;;;;;6128380;19;20253;-68
2022/11/14 08:50:31;;;;;;;36.38;17.35;;;6.60;99.90;;;;;;6131398;19;19936;-67
2022/11/14 08:52:35;;;;;;;32.33;16.92;;;6.50;99.90;;;;;;6131289;19;19918;-67
2022/11/14 08:54:38;;;;;;;33.03;15.98;;;7.10;99.90;;;;;;6130073;19;19950;-67
2022/11/14 08:56:42;;;;;;;36.53;17.48;;;6.70;99.90;;;;;;6125418;19;20368;-67
2022/11/14 08:58:47;;;;;;;34.30;16.08;;;;;;;;;;6128017;19;20339;-68
2022/11/14 09:00:54;;;;;;;35.95;16.55;;;6.60;99.90;;;;;;6124481;19;19918;-67
2022/11/14 09:02:58;;;;;;;35.13;17.05;;;;;;;;;;6129309;19;19962;-67
2022/11/14 09:05:01;;;;;;;33.72;16.63;;;6.80;99.90;;;;;;6132006;19;19946;-67
2022/11/14 09:07:05;;;;;;;32.70;15.13;;;;;;;;;;6132226;19;19919;-68
2022/11/14 09:09:09;;;;;;;33.30;16.33;;;7.30;99.90;;;;;;6130571;19;19942;-66
2022/11/14 09:11:13;;;;;;;34.70;16.63;;;6.70;99.90;;;;;;6131298;19;19950;-66
2022/11/14 09:13:17;;;;;;;38.00;17.23;;;6.70;99.90;;;;;;6122727;19;19946;-66
2022/11/14 09:15:21;;;;;;;35.72;18.80;;;7.40;99.90;;;;;;6129256;19;19926;-67
2022/11/14 09:17:28;;;;;;;37.05;17.75;;;7.00;99.90;;;;;;6133713;19;20240;-65
2022/11/14 09:19:32;;;;;;;35.00;16.92;;;6.80;99.90;;;;;;6129585;19;19966;-66
2022/11/14 09:21:35;;;;;;;35.58;17.20;;;7.00;99.90;;;;;;6129691;19;20344;-66
2022/11/14 09:23:40;;;;;;;32.40;16.40;;;7.00;99.90;;;;;;6130421;19;19923;-66
2022/11/14 09:25:44;;;;;;;34.92;16.95;;;;;;;;;;6124751;19;19945;-66
2022/11/14 09:27:48;;;;;;;36.00;16.67;;;7.10;99.90;;;;;;6130374;19;19935;-66
2022/11/14 09:29:51;;;;;;;35.78;18.25;;;7.10;99.90;;;;;;6119535;19;19922;-66
2022/11/14 09:31:56;;;;;;;33.90;16.98;;;;;;;;;;6118718;19;20642;-66
2022/11/14 09:34:03;;;;;;;34.38;16.70;;;7.30;99.90;;;;;;6126627;19;19938;-66
2022/11/14 09:36:09;;;;;;;33.35;16.73;;;6.90;99.90;;;;;;6118363;19;19954;-66
2022/11/14 09:38:13;;;;;;;36.55;17.92;;;7.00;99.90;;;;;;6120296;19;19930;-67
2022/11/14 09:40:18;;;;;;;34.95;17.40;;;7.40;99.90;;;;;;6112452;19;19926;-67
2022/11/14 09:42:35;;;;;;;36.63;17.83;;;7.20;99.90;;;;;;6127692;19;19918;-67
2022/11/14 09:44:49;;;;;;;38.55;18.83;;;7.30;99.90;;;;;;6119151;19;20332;-67
2022/11/14 09:46:57;;;;;;;36.67;17.55;;;7.40;99.90;;;;;;6132901;19;19915;-67
2022/11/14 09:49:04;;;;;;;33.50;15.98;;;7.40;99.90;;;;;;6129017;19;19922;-67
2022/11/14 09:51:11;;;;;;;35.30;18.17;;;7.70;99.90;;;;;;6118801;19;19937;-67
2022/11/14 09:53:25;;;;;;;31.27;15.90;;;7.70;99.90;;;;;;6130239;19;19919;-67
2022/11/14 09:55:32;;;;;;;31.55;15.55;;;8.10;99.90;;;;;;6127614;19;19926;-68
2022/11/14 09:57:36;;;;;;;34.67;16.20;;;7.50;99.90;;;;;;6128948;19;20285;-67
2022/11/14 09:59:41;;;;;;;34.50;16.25;;;7.50;99.90;;;;;;6126643;19;20037;-67
2022/11/14 10:01:53;;;;;;;30.48;16.27;;;7.20;99.90;;;;;;6130257;19;19922;-67
2022/11/14 10:04:11;;;;;;;32.75;16.77;;;7.60;99.90;;;;;;6129987;19;19953;-67
2022/11/14 10:06:27;;;;;;;35.08;17.23;;;7.80;99.90;;;;;;6129782;19;20344;-67
2022/11/14 10:08:57;;;;;;;31.85;15.90;;;7.80;99.90;;;;;;6124149;19;19954;-66
2022/11/14 10:11:06;;;;;;;31.40;16.40;;;7.30;99.90;;;;;;6129020;19;20336;-67
2022/11/14 10:13:26;;;;;;;35.63;15.98;;;8.00;99.90;;;;;;6130731;19;19927;-67
2022/11/14 10:15:34;;;;;;;30.00;16.30;;;8.10;99.90;;;;;;6128219;19;19922;-68
2022/11/14 10:18:09;;;;;;;30.40;15.43;;;7.70;99.90;;;;;;6130435;19;19942;-67
2022/11/14 10:20:22;;;;;;;30.55;14.25;;;7.70;99.90;;;;;;6128897;19;19907;-68
2022/11/14 10:22:43;;;;;;;31.02;15.15;;;8.10;99.90;;;;;;6128277;19;19935;-67
2022/11/14 10:25:15;;;;;;;35.55;16.55;;;7.40;99.90;;;;;;6127932;19;19927;-65
2022/11/14 10:27:23;;;;;;;27.83;14.02;;;7.60;99.90;;;;;;6127565;19;19922;-67
2022/11/14 10:29:53;;;;;;;33.70;15.15;;;7.50;99.90;;;;;;6131193;19;19922;-65
2022/11/14 10:32:06;;;;;;;37.83;15.43;;;7.90;99.90;;;;;;6128637;19;19922;-66
2022/11/14 10:34:15;;;;;;;32.13;14.98;;;7.50;99.90;;;;;;6125276;19;20268;-66
2022/11/14 10:36:28;;;;;;;30.10;15.73;;;7.50;99.90;;;;;;6130215;19;20008;-66
2022/11/14 10:38:37;;;;;;;28.88;14.77;;;8.10;99.90;;;;;;6132496;19;19915;-66
2022/11/14 10:40:43;;;;;;;28.25;14.18;;;7.60;99.90;;;;;;6129091;19;19929;-66
2022/11/14 10:42:50;;;;;;;32.45;14.60;;;7.90;99.90;;;;;;6127280;19;19915;-66
2022/11/14 10:45:02;;;;;;;29.98;14.57;;;7.50;99.90;;;;;;6129213;19;19982;-67
2022/11/14 10:47:13;;;;;;;29.38;14.65;;;7.70;99.90;;;;;;6125099;19;19926;-67
2022/11/14 10:49:22;;;;;;;29.83;15.43;;;8.00;99.90;;;;;;6131185;19;19922;-66
2022/11/14 10:51:35;;;;;;;32.60;14.95;;;8.20;99.90;;;;;;6129270;19;19934;-67
2022/11/14 10:53:54;;;;;;;30.30;14.88;;;8.10;99.90;;;;;;6131828;19;19929;-66
2022/11/14 10:56:00;;;;;;;31.38;14.77;;;8.70;99.90;;;;;;6128254;19;19914;-66
2022/11/14 10:58:04;;;;;;;29.67;14.38;;;8.30;99.90;;;;;;6128650;19;19915;-66
2022/11/14 11:00:14;;;;;;;29.48;14.50;;;8.20;99.90;;;;;;6127782;19;20355;-67